sensor_id;sensor_type;location;lat;lon;timestamp;P1;durP1;ratioP1;P2;durP2;ratioP2
15677;SDS011;7939;50.814;6.368;2023-02-22T00:00:24;20.67;;;13.05;;
15677;SDS011;7939;50.814;6.368;2023-02-22T00:03:00;23.20;;;12.75;;
15677;SDS011;7939;50.814;6.368;2023-02-22T00:05:28;23.13;;;12.63;;
15677;SDS011;7939;50.814;6.368;2023-02-22T00:07:55;23.67;;;13.40;;
15677;SDS011;7939;50.814;6.368;2023-02-22T00:10:24;20.52;;;12.85;;
15677;SDS011;7939;50.814;6.368;2023-02-22T00:12:53;23.45;;;12.77;;
15677;SDS011;7939;50.814;6.368;2023-02-22T00:15:22;20.65;;;11.88;;
15677;SDS011;7939;50.814;6.368;2023-02-22T00:17:52;24.52;;;13.30;;
15677;SDS011;7939;50.814;6.368;2023-02-22T00:20:18;18.63;;;11.38;;
15677;SDS011;7939;50.814;6.368;2023-02-22T00:22:47;21.35;;;12.48;;
15677;SDS011;7939;50.814;6.368;2023-02-22T00:25:16;20.65;;;12.20;;
15677;SDS011;7939;50.814;6.368;2023-02-22T00:27:44;20.48;;;12.13;;
15677;SDS011;7939;50.814;6.368;2023-02-22T00:30:15;18.90;;;11.20;;
15677;SDS011;7939;50.814;6.368;2023-02-22T00:32:43;20.83;;;12.43;;
15677;SDS011;7939;50.814;6.368;2023-02-22T00:35:10;18.40;;;11.32;;
15677;SDS011;7939;50.814;6.368;2023-02-22T00:37:37;17.98;;;10.82;;
15677;SDS011;7939;50.814;6.368;2023-02-22T00:40:06;17.15;;;11.13;;
15677;SDS011;7939;50.814;6.368;2023-02-22T00:42:34;17.35;;;10.48;;
15677;SDS011;7939;50.814;6.368;2023-02-22T00:45:00;20.40;;;11.65;;
15677;SDS011;7939;50.814;6.368;2023-02-22T00:47:28;19.15;;;11.52;;
15677;SDS011;7939;50.814;6.368;2023-02-22T00:49:55;18.42;;;11.15;;
15677;SDS011;7939;50.814;6.368;2023-02-22T00:52:22;18.08;;;10.43;;
15677;SDS011;7939;50.814;6.368;2023-02-22T00:54:48;19.20;;;10.48;;
15677;SDS011;7939;50.814;6.368;2023-02-22T00:57:15;20.10;;;10.82;;
15677;SDS011;7939;50.814;6.368;2023-02-22T00:59:43;16.88;;;10.70;;
15677;SDS011;7939;50.814;6.368;2023-02-22T01:02:09;17.58;;;10.82;;
15677;SDS011;7939;50.814;6.368;2023-02-22T01:04:37;17.30;;;10.90;;
15677;SDS011;7939;50.814;6.368;2023-02-22T01:07:04;15.65;;;10.73;;
15677;SDS011;7939;50.814;6.368;2023-02-22T01:09:31;18.98;;;11.10;;
15677;SDS011;7939;50.814;6.368;2023-02-22T01:11:59;18.00;;;10.27;;
15677;SDS011;7939;50.814;6.368;2023-02-22T01:14:26;19.10;;;11.48;;
15677;SDS011;7939;50.814;6.368;2023-02-22T01:16:53;20.55;;;12.77;;
15677;SDS011;7939;50.814;6.368;2023-02-22T01:19:21;20.25;;;11.50;;
15677;SDS011;7939;50.814;6.368;2023-02-22T01:21:49;20.33;;;12.18;;
15677;SDS011;7939;50.814;6.368;2023-02-22T01:24:16;19.52;;;11.70;;
15677;SDS011;7939;50.814;6.368;2023-02-22T01:26:47;19.80;;;12.13;;
15677;SDS011;7939;50.814;6.368;2023-02-22T01:29:16;17.60;;;11.23;;
15677;SDS011;7939;50.814;6.368;2023-02-22T01:31:49;14.60;;;9.43;;
15677;SDS011;7939;50.814;6.368;2023-02-22T01:34:18;15.93;;;10.68;;
15677;SDS011;7939;50.814;6.368;2023-02-22T01:36:45;14.40;;;10.15;;
15677;SDS011;7939;50.814;6.368;2023-02-22T01:39:13;18.08;;;10.45;;
15677;SDS011;7939;50.814;6.368;2023-02-22T01:41:40;15.70;;;10.05;;
15677;SDS011;7939;50.814;6.368;2023-02-22T01:44:19;16.77;;;9.65;;
15677;SDS011;7939;50.814;6.368;2023-02-22T01:46:50;17.65;;;10.68;;
15677;SDS011;7939;50.814;6.368;2023-02-22T01:49:17;19.52;;;10.95;;
15677;SDS011;7939;50.814;6.368;2023-02-22T01:51:45;19.15;;;11.48;;
15677;SDS011;7939;50.814;6.368;2023-02-22T01:54:16;18.45;;;10.63;;
15677;SDS011;7939;50.814;6.368;2023-02-22T01:56:46;19.42;;;10.82;;
15677;SDS011;7939;50.814;6.368;2023-02-22T01:59:16;15.43;;;10.40;;
15677;SDS011;7939;50.814;6.368;2023-02-22T02:01:44;19.15;;;10.77;;
15677;SDS011;7939;50.814;6.368;2023-02-22T02:04:12;22.13;;;11.45;;
15677;SDS011;7939;50.814;6.368;2023-02-22T02:06:42;17.52;;;11.00;;
15677;SDS011;7939;50.814;6.368;2023-02-22T02:09:12;16.70;;;11.05;;
15677;SDS011;7939;50.814;6.368;2023-02-22T02:11:46;14.60;;;10.98;;
15677;SDS011;7939;50.814;6.368;2023-02-22T02:14:15;17.25;;;10.65;;
15677;SDS011;7939;50.814;6.368;2023-02-22T02:16:43;16.33;;;10.40;;
15677;SDS011;7939;50.814;6.368;2023-02-22T02:19:14;15.02;;;10.02;;
15677;SDS011;7939;50.814;6.368;2023-02-22T02:25:05;15.10;;;9.70;;
15677;SDS011;7939;50.814;6.368;2023-02-22T02:30:58;12.65;;;9.00;;
15677;SDS011;7939;50.814;6.368;2023-02-22T02:33:40;12.10;;;8.30;;
15677;SDS011;7939;50.814;6.368;2023-02-22T02:36:11;15.48;;;9.60;;
15677;SDS011;7939;50.814;6.368;2023-02-22T02:38:44;12.55;;;9.30;;
15677;SDS011;7939;50.814;6.368;2023-02-22T02:41:16;14.18;;;9.75;;
15677;SDS011;7939;50.814;6.368;2023-02-22T02:43:50;13.18;;;9.35;;
15677;SDS011;7939;50.814;6.368;2023-02-22T02:46:22;12.93;;;8.85;;
15677;SDS011;7939;50.814;6.368;2023-02-22T02:48:55;16.17;;;9.05;;
15677;SDS011;7939;50.814;6.368;2023-02-22T02:51:27;12.07;;;7.88;;
15677;SDS011;7939;50.814;6.368;2023-02-22T02:53:57;11.65;;;8.55;;
15677;SDS011;7939;50.814;6.368;2023-02-22T02:56:25;13.48;;;8.95;;
15677;SDS011;7939;50.814;6.368;2023-02-22T02:58:53;10.63;;;7.38;;
15677;SDS011;7939;50.814;6.368;2023-02-22T03:01:25;11.43;;;7.72;;
15677;SDS011;7939;50.814;6.368;2023-02-22T03:04:11;11.93;;;7.53;;
15677;SDS011;7939;50.814;6.368;2023-02-22T03:09:58;11.43;;;6.95;;
15677;SDS011;7939;50.814;6.368;2023-02-22T03:12:37;11.23;;;6.97;;
15677;SDS011;7939;50.814;6.368;2023-02-22T03:15:17;10.25;;;7.03;;
15677;SDS011;7939;50.814;6.368;2023-02-22T03:17:55;9.40;;;6.70;;
15677;SDS011;7939;50.814;6.368;2023-02-22T03:20:34;10.60;;;7.55;;
15677;SDS011;7939;50.814;6.368;2023-02-22T03:23:12;10.40;;;7.07;;
15677;SDS011;7939;50.814;6.368;2023-02-22T03:25:45;8.68;;;6.55;;
15677;SDS011;7939;50.814;6.368;2023-02-22T03:28:16;12.35;;;7.50;;
15677;SDS011;7939;50.814;6.368;2023-02-22T03:30:45;13.45;;;7.10;;
15677;SDS011;7939;50.814;6.368;2023-02-22T03:33:16;11.02;;;7.05;;
15677;SDS011;7939;50.814;6.368;2023-02-22T03:36:01;12.30;;;7.72;;
15677;SDS011;7939;50.814;6.368;2023-02-22T03:38:32;9.98;;;6.72;;
15677;SDS011;7939;50.814;6.368;2023-02-22T03:41:02;10.70;;;6.70;;
15677;SDS011;7939;50.814;6.368;2023-02-22T03:43:32;12.07;;;6.72;;
15677;SDS011;7939;50.814;6.368;2023-02-22T03:46:02;10.07;;;7.30;;
15677;SDS011;7939;50.814;6.368;2023-02-22T03:48:31;10.35;;;6.93;;
15677;SDS011;7939;50.814;6.368;2023-02-22T03:51:04;10.30;;;6.07;;
15677;SDS011;7939;50.814;6.368;2023-02-22T03:53:32;9.07;;;6.43;;
15677;SDS011;7939;50.814;6.368;2023-02-22T03:56:01;9.02;;;6.20;;
15677;SDS011;7939;50.814;6.368;2023-02-22T03:58:32;9.50;;;6.78;;
15677;SDS011;7939;50.814;6.368;2023-02-22T04:01:01;10.77;;;6.32;;
15677;SDS011;7939;50.814;6.368;2023-02-22T04:03:28;10.40;;;6.65;;
15677;SDS011;7939;50.814;6.368;2023-02-22T04:05:55;10.73;;;6.28;;
15677;SDS011;7939;50.814;6.368;2023-02-22T04:08:23;9.15;;;6.28;;
15677;SDS011;7939;50.814;6.368;2023-02-22T04:10:50;10.23;;;5.78;;
15677;SDS011;7939;50.814;6.368;2023-02-22T04:13:16;9.25;;;5.45;;
15677;SDS011;7939;50.814;6.368;2023-02-22T04:15:43;7.50;;;5.25;;
15677;SDS011;7939;50.814;6.368;2023-02-22T04:18:09;6.93;;;5.28;;
15677;SDS011;7939;50.814;6.368;2023-02-22T04:20:36;7.43;;;5.40;;
15677;SDS011;7939;50.814;6.368;2023-02-22T04:23:03;6.55;;;4.72;;
15677;SDS011;7939;50.814;6.368;2023-02-22T04:25:31;6.55;;;5.03;;
15677;SDS011;7939;50.814;6.368;2023-02-22T04:27:58;5.32;;;4.43;;
15677;SDS011;7939;50.814;6.368;2023-02-22T04:30:24;7.00;;;4.72;;
15677;SDS011;7939;50.814;6.368;2023-02-22T04:32:52;7.95;;;4.60;;
15677;SDS011;7939;50.814;6.368;2023-02-22T04:35:19;9.10;;;5.55;;
15677;SDS011;7939;50.814;6.368;2023-02-22T04:37:46;8.75;;;4.95;;
15677;SDS011;7939;50.814;6.368;2023-02-22T04:40:14;6.93;;;3.97;;
15677;SDS011;7939;50.814;6.368;2023-02-22T04:42:43;6.68;;;4.70;;
15677;SDS011;7939;50.814;6.368;2023-02-22T04:45:10;7.88;;;4.65;;
15677;SDS011;7939;50.814;6.368;2023-02-22T04:47:37;7.07;;;4.57;;
15677;SDS011;7939;50.814;6.368;2023-02-22T04:50:05;6.55;;;3.90;;
15677;SDS011;7939;50.814;6.368;2023-02-22T04:52:33;4.82;;;3.67;;
15677;SDS011;7939;50.814;6.368;2023-02-22T04:55:00;5.55;;;3.97;;
15677;SDS011;7939;50.814;6.368;2023-02-22T04:57:27;5.57;;;4.18;;
15677;SDS011;7939;50.814;6.368;2023-02-22T04:59:55;5.40;;;3.78;;
15677;SDS011;7939;50.814;6.368;2023-02-22T05:02:21;5.55;;;3.92;;
15677;SDS011;7939;50.814;6.368;2023-02-22T05:04:48;4.22;;;3.75;;
15677;SDS011;7939;50.814;6.368;2023-02-22T05:07:15;6.88;;;4.47;;
15677;SDS011;7939;50.814;6.368;2023-02-22T05:09:41;5.40;;;4.25;;
15677;SDS011;7939;50.814;6.368;2023-02-22T05:12:10;5.32;;;4.30;;
15677;SDS011;7939;50.814;6.368;2023-02-22T05:14:36;6.32;;;4.10;;
15677;SDS011;7939;50.814;6.368;2023-02-22T05:17:04;5.28;;;4.10;;
15677;SDS011;7939;50.814;6.368;2023-02-22T05:19:31;5.80;;;4.95;;
15677;SDS011;7939;50.814;6.368;2023-02-22T05:21:57;5.90;;;4.47;;
15677;SDS011;7939;50.814;6.368;2023-02-22T05:24:24;6.90;;;4.90;;
15677;SDS011;7939;50.814;6.368;2023-02-22T05:26:51;5.10;;;4.22;;
15677;SDS011;7939;50.814;6.368;2023-02-22T05:29:18;6.18;;;4.28;;
15677;SDS011;7939;50.814;6.368;2023-02-22T05:31:45;5.10;;;4.35;;
15677;SDS011;7939;50.814;6.368;2023-02-22T05:34:13;5.53;;;4.10;;
15677;SDS011;7939;50.814;6.368;2023-02-22T05:36:40;6.45;;;4.32;;
15677;SDS011;7939;50.814;6.368;2023-02-22T05:39:06;7.47;;;3.92;;
15677;SDS011;7939;50.814;6.368;2023-02-22T05:41:33;6.20;;;3.78;;
15677;SDS011;7939;50.814;6.368;2023-02-22T05:44:00;4.90;;;4.00;;
15677;SDS011;7939;50.814;6.368;2023-02-22T05:46:27;6.30;;;4.57;;
15677;SDS011;7939;50.814;6.368;2023-02-22T05:48:53;5.30;;;4.28;;
15677;SDS011;7939;50.814;6.368;2023-02-22T05:51:21;4.55;;;3.78;;
15677;SDS011;7939;50.814;6.368;2023-02-22T05:53:48;6.13;;;3.92;;
15677;SDS011;7939;50.814;6.368;2023-02-22T05:56:19;4.47;;;3.92;;
15677;SDS011;7939;50.814;6.368;2023-02-22T05:58:46;5.13;;;3.75;;
15677;SDS011;7939;50.814;6.368;2023-02-22T06:01:13;6.35;;;4.43;;
15677;SDS011;7939;50.814;6.368;2023-02-22T06:03:40;5.78;;;4.20;;
15677;SDS011;7939;50.814;6.368;2023-02-22T06:06:06;7.47;;;4.07;;
15677;SDS011;7939;50.814;6.368;2023-02-22T06:08:35;5.18;;;3.88;;
15677;SDS011;7939;50.814;6.368;2023-02-22T06:11:02;5.45;;;3.97;;
15677;SDS011;7939;50.814;6.368;2023-02-22T06:13:29;6.88;;;4.45;;
15677;SDS011;7939;50.814;6.368;2023-02-22T06:15:55;6.43;;;4.03;;
15677;SDS011;7939;50.814;6.368;2023-02-22T06:18:23;6.18;;;4.53;;
15677;SDS011;7939;50.814;6.368;2023-02-22T06:20:51;6.68;;;4.28;;
15677;SDS011;7939;50.814;6.368;2023-02-22T06:23:18;5.90;;;4.00;;
15677;SDS011;7939;50.814;6.368;2023-02-22T06:25:46;5.97;;;4.03;;
15677;SDS011;7939;50.814;6.368;2023-02-22T06:28:13;6.45;;;4.45;;
15677;SDS011;7939;50.814;6.368;2023-02-22T06:30:40;6.90;;;4.28;;
15677;SDS011;7939;50.814;6.368;2023-02-22T06:33:07;6.07;;;4.35;;
15677;SDS011;7939;50.814;6.368;2023-02-22T06:35:34;7.60;;;4.13;;
15677;SDS011;7939;50.814;6.368;2023-02-22T06:38:01;5.78;;;4.05;;
15677;SDS011;7939;50.814;6.368;2023-02-22T06:40:27;7.47;;;4.65;;
15677;SDS011;7939;50.814;6.368;2023-02-22T06:42:56;6.78;;;4.65;;
15677;SDS011;7939;50.814;6.368;2023-02-22T06:45:24;5.95;;;3.95;;
15677;SDS011;7939;50.814;6.368;2023-02-22T06:47:51;9.45;;;4.72;;
15677;SDS011;7939;50.814;6.368;2023-02-22T06:50:18;6.57;;;4.65;;
15677;SDS011;7939;50.814;6.368;2023-02-22T06:52:47;7.13;;;4.57;;
15677;SDS011;7939;50.814;6.368;2023-02-22T06:55:18;7.28;;;4.70;;
15677;SDS011;7939;50.814;6.368;2023-02-22T06:57:45;8.05;;;5.38;;
15677;SDS011;7939;50.814;6.368;2023-02-22T07:00:15;5.65;;;4.60;;
15677;SDS011;7939;50.814;6.368;2023-02-22T07:02:43;8.38;;;6.22;;
15677;SDS011;7939;50.814;6.368;2023-02-22T07:05:10;8.07;;;5.72;;
15677;SDS011;7939;50.814;6.368;2023-02-22T07:07:37;7.43;;;4.97;;
15677;SDS011;7939;50.814;6.368;2023-02-22T07:10:05;9.20;;;5.65;;
15677;SDS011;7939;50.814;6.368;2023-02-22T07:12:33;7.60;;;5.00;;
15677;SDS011;7939;50.814;6.368;2023-02-22T07:14:59;6.78;;;4.35;;
15677;SDS011;7939;50.814;6.368;2023-02-22T07:17:27;4.70;;;3.95;;
15677;SDS011;7939;50.814;6.368;2023-02-22T07:19:54;7.82;;;4.72;;
15677;SDS011;7939;50.814;6.368;2023-02-22T07:22:20;7.63;;;4.55;;
15677;SDS011;7939;50.814;6.368;2023-02-22T07:24:47;6.45;;;4.93;;
15677;SDS011;7939;50.814;6.368;2023-02-22T07:27:13;6.63;;;4.85;;
15677;SDS011;7939;50.814;6.368;2023-02-22T07:29:41;7.85;;;5.47;;
15677;SDS011;7939;50.814;6.368;2023-02-22T07:32:08;7.30;;;5.65;;
15677;SDS011;7939;50.814;6.368;2023-02-22T07:34:36;7.00;;;4.35;;
15677;SDS011;7939;50.814;6.368;2023-02-22T07:37:03;7.40;;;5.05;;
15677;SDS011;7939;50.814;6.368;2023-02-22T07:39:29;7.30;;;5.20;;
15677;SDS011;7939;50.814;6.368;2023-02-22T07:41:57;7.78;;;5.07;;
15677;SDS011;7939;50.814;6.368;2023-02-22T07:44:24;6.38;;;5.38;;
15677;SDS011;7939;50.814;6.368;2023-02-22T07:46:50;7.32;;;5.63;;
15677;SDS011;7939;50.814;6.368;2023-02-22T07:49:17;6.95;;;4.95;;
15677;SDS011;7939;50.814;6.368;2023-02-22T07:51:45;8.85;;;5.35;;
15677;SDS011;7939;50.814;6.368;2023-02-22T07:54:11;7.43;;;5.45;;
15677;SDS011;7939;50.814;6.368;2023-02-22T07:56:43;8.88;;;5.10;;
15677;SDS011;7939;50.814;6.368;2023-02-22T07:59:10;8.45;;;5.35;;
15677;SDS011;7939;50.814;6.368;2023-02-22T08:01:36;9.35;;;5.57;;
15677;SDS011;7939;50.814;6.368;2023-02-22T08:04:03;11.48;;;6.72;;
15677;SDS011;7939;50.814;6.368;2023-02-22T08:06:30;12.65;;;7.20;;
15677;SDS011;7939;50.814;6.368;2023-02-22T08:08:58;7.25;;;6.05;;
15677;SDS011;7939;50.814;6.368;2023-02-22T08:11:25;13.38;;;8.07;;
15677;SDS011;7939;50.814;6.368;2023-02-22T08:13:52;14.43;;;8.20;;
15677;SDS011;7939;50.814;6.368;2023-02-22T08:16:19;12.93;;;6.60;;
15677;SDS011;7939;50.814;6.368;2023-02-22T08:18:45;7.97;;;5.55;;
15677;SDS011;7939;50.814;6.368;2023-02-22T08:21:12;8.50;;;6.05;;
15677;SDS011;7939;50.814;6.368;2023-02-22T08:23:38;9.40;;;6.10;;
15677;SDS011;7939;50.814;6.368;2023-02-22T08:26:07;7.28;;;5.93;;
15677;SDS011;7939;50.814;6.368;2023-02-22T08:28:39;8.90;;;5.55;;
15677;SDS011;7939;50.814;6.368;2023-02-22T08:31:07;9.68;;;6.18;;
15677;SDS011;7939;50.814;6.368;2023-02-22T08:33:34;9.40;;;5.75;;
15677;SDS011;7939;50.814;6.368;2023-02-22T08:36:01;8.93;;;6.07;;
15677;SDS011;7939;50.814;6.368;2023-02-22T08:38:28;8.98;;;5.97;;
15677;SDS011;7939;50.814;6.368;2023-02-22T08:40:58;10.35;;;6.47;;
15677;SDS011;7939;50.814;6.368;2023-02-22T08:43:26;9.90;;;6.90;;
15677;SDS011;7939;50.814;6.368;2023-02-22T08:45:53;11.65;;;6.97;;
15677;SDS011;7939;50.814;6.368;2023-02-22T08:48:19;12.80;;;7.35;;
15677;SDS011;7939;50.814;6.368;2023-02-22T08:50:46;10.95;;;6.30;;
15677;SDS011;7939;50.814;6.368;2023-02-22T08:53:13;10.95;;;6.75;;
15677;SDS011;7939;50.814;6.368;2023-02-22T08:55:40;13.25;;;7.90;;
15677;SDS011;7939;50.814;6.368;2023-02-22T08:58:08;10.00;;;7.13;;
15677;SDS011;7939;50.814;6.368;2023-02-22T09:00:37;10.45;;;6.45;;
15677;SDS011;7939;50.814;6.368;2023-02-22T09:03:05;10.13;;;6.22;;
15677;SDS011;7939;50.814;6.368;2023-02-22T09:05:33;9.85;;;6.35;;
15677;SDS011;7939;50.814;6.368;2023-02-22T09:08:00;10.50;;;5.68;;
15677;SDS011;7939;50.814;6.368;2023-02-22T09:10:27;10.00;;;6.07;;
15677;SDS011;7939;50.814;6.368;2023-02-22T09:12:55;10.27;;;5.68;;
15677;SDS011;7939;50.814;6.368;2023-02-22T09:15:22;10.27;;;6.15;;
15677;SDS011;7939;50.814;6.368;2023-02-22T09:17:51;8.55;;;5.38;;
15677;SDS011;7939;50.814;6.368;2023-02-22T09:20:19;8.20;;;5.45;;
15677;SDS011;7939;50.814;6.368;2023-02-22T09:22:47;8.05;;;5.45;;
15677;SDS011;7939;50.814;6.368;2023-02-22T09:25:15;11.75;;;7.00;;
15677;SDS011;7939;50.814;6.368;2023-02-22T09:27:45;12.05;;;6.90;;
15677;SDS011;7939;50.814;6.368;2023-02-22T09:30:15;8.15;;;5.28;;
15677;SDS011;7939;50.814;6.368;2023-02-22T09:32:43;10.88;;;5.65;;
15677;SDS011;7939;50.814;6.368;2023-02-22T09:35:11;8.90;;;5.20;;
15677;SDS011;7939;50.814;6.368;2023-02-22T09:37:38;7.85;;;5.20;;
15677;SDS011;7939;50.814;6.368;2023-02-22T09:40:09;8.25;;;5.43;;
15677;SDS011;7939;50.814;6.368;2023-02-22T09:42:43;9.20;;;5.75;;
15677;SDS011;7939;50.814;6.368;2023-02-22T09:45:22;8.40;;;5.80;;
15677;SDS011;7939;50.814;6.368;2023-02-22T09:47:54;8.27;;;5.13;;
15677;SDS011;7939;50.814;6.368;2023-02-22T09:50:25;8.52;;;6.43;;
15677;SDS011;7939;50.814;6.368;2023-02-22T09:52:56;8.82;;;5.93;;
15677;SDS011;7939;50.814;6.368;2023-02-22T09:55:30;9.93;;;6.22;;
15677;SDS011;7939;50.814;6.368;2023-02-22T09:58:00;7.10;;;5.05;;
15677;SDS011;7939;50.814;6.368;2023-02-22T10:00:32;9.27;;;5.47;;
15677;SDS011;7939;50.814;6.368;2023-02-22T10:03:05;11.93;;;6.22;;
15677;SDS011;7939;50.814;6.368;2023-02-22T10:05:46;11.90;;;6.50;;
15677;SDS011;7939;50.814;6.368;2023-02-22T10:08:18;10.75;;;5.75;;
15677;SDS011;7939;50.814;6.368;2023-02-22T10:10:46;9.05;;;5.57;;
15677;SDS011;7939;50.814;6.368;2023-02-22T10:13:24;8.35;;;5.47;;
15677;SDS011;7939;50.814;6.368;2023-02-22T10:15:59;10.57;;;5.80;;
15677;SDS011;7939;50.814;6.368;2023-02-22T10:18:42;8.00;;;5.68;;
15677;SDS011;7939;50.814;6.368;2023-02-22T10:21:27;10.30;;;5.72;;
15677;SDS011;7939;50.814;6.368;2023-02-22T10:24:12;8.02;;;5.47;;
15677;SDS011;7939;50.814;6.368;2023-02-22T10:26:51;11.55;;;6.93;;
15677;SDS011;7939;50.814;6.368;2023-02-22T10:29:22;8.88;;;6.25;;
15677;SDS011;7939;50.814;6.368;2023-02-22T10:31:55;9.13;;;6.20;;
15677;SDS011;7939;50.814;6.368;2023-02-22T10:34:24;13.43;;;8.23;;
15677;SDS011;7939;50.814;6.368;2023-02-22T10:36:55;9.88;;;6.38;;
15677;SDS011;7939;50.814;6.368;2023-02-22T10:39:26;9.93;;;6.40;;
15677;SDS011;7939;50.814;6.368;2023-02-22T10:41:56;8.73;;;5.45;;
15677;SDS011;7939;50.814;6.368;2023-02-22T10:44:30;11.15;;;6.20;;
15677;SDS011;7939;50.814;6.368;2023-02-22T10:46:57;7.78;;;5.57;;
15677;SDS011;7939;50.814;6.368;2023-02-22T10:49:24;9.35;;;5.25;;
15677;SDS011;7939;50.814;6.368;2023-02-22T10:51:58;8.40;;;5.50;;
15677;SDS011;7939;50.814;6.368;2023-02-22T10:54:27;9.10;;;5.53;;
15677;SDS011;7939;50.814;6.368;2023-02-22T10:56:56;8.38;;;5.40;;
15677;SDS011;7939;50.814;6.368;2023-02-22T10:59:28;9.07;;;5.63;;
15677;SDS011;7939;50.814;6.368;2023-02-22T11:01:58;9.63;;;6.40;;
15677;SDS011;7939;50.814;6.368;2023-02-22T11:04:25;9.13;;;5.25;;
15677;SDS011;7939;50.814;6.368;2023-02-22T11:07:15;6.47;;;4.65;;
15677;SDS011;7939;50.814;6.368;2023-02-22T11:09:45;6.13;;;4.53;;
15677;SDS011;7939;50.814;6.368;2023-02-22T11:12:16;9.88;;;5.13;;
15677;SDS011;7939;50.814;6.368;2023-02-22T11:14:45;8.40;;;4.63;;
15677;SDS011;7939;50.814;6.368;2023-02-22T11:17:14;9.25;;;4.85;;
15677;SDS011;7939;50.814;6.368;2023-02-22T11:19:45;9.02;;;4.93;;
15677;SDS011;7939;50.814;6.368;2023-02-22T11:22:18;9.88;;;5.00;;
15677;SDS011;7939;50.814;6.368;2023-02-22T11:24:47;6.82;;;4.75;;
15677;SDS011;7939;50.814;6.368;2023-02-22T11:27:25;9.13;;;4.72;;
15677;SDS011;7939;50.814;6.368;2023-02-22T11:29:56;6.78;;;4.97;;
15677;SDS011;7939;50.814;6.368;2023-02-22T11:32:34;5.60;;;4.63;;
15677;SDS011;7939;50.814;6.368;2023-02-22T11:35:15;8.95;;;5.60;;
15677;SDS011;7939;50.814;6.368;2023-02-22T11:38:05;6.78;;;4.93;;
15677;SDS011;7939;50.814;6.368;2023-02-22T11:40:36;8.82;;;4.60;;
15677;SDS011;7939;50.814;6.368;2023-02-22T11:43:09;12.73;;;6.30;;
15677;SDS011;7939;50.814;6.368;2023-02-22T11:45:50;8.68;;;5.50;;
15677;SDS011;7939;50.814;6.368;2023-02-22T11:48:27;8.65;;;5.38;;
15677;SDS011;7939;50.814;6.368;2023-02-22T11:51:02;8.43;;;5.88;;
15677;SDS011;7939;50.814;6.368;2023-02-22T11:53:42;9.00;;;5.40;;
15677;SDS011;7939;50.814;6.368;2023-02-22T11:56:24;9.15;;;5.65;;
15677;SDS011;7939;50.814;6.368;2023-02-22T11:58:56;8.27;;;5.97;;
15677;SDS011;7939;50.814;6.368;2023-02-22T12:01:30;10.20;;;6.00;;
15677;SDS011;7939;50.814;6.368;2023-02-22T12:04:13;8.13;;;5.80;;
15677;SDS011;7939;50.814;6.368;2023-02-22T12:06:56;8.30;;;5.22;;
15677;SDS011;7939;50.814;6.368;2023-02-22T12:09:37;8.68;;;5.80;;
15677;SDS011;7939;50.814;6.368;2023-02-22T12:12:12;7.15;;;5.93;;
15677;SDS011;7939;50.814;6.368;2023-02-22T12:14:47;7.22;;;5.38;;
15677;SDS011;7939;50.814;6.368;2023-02-22T12:17:25;7.50;;;5.38;;
15677;SDS011;7939;50.814;6.368;2023-02-22T12:20:02;9.07;;;5.85;;
15677;SDS011;7939;50.814;6.368;2023-02-22T12:22:42;8.15;;;6.22;;
15677;SDS011;7939;50.814;6.368;2023-02-22T12:25:19;9.90;;;6.50;;
15677;SDS011;7939;50.814;6.368;2023-02-22T12:27:48;10.88;;;6.57;;
15677;SDS011;7939;50.814;6.368;2023-02-22T12:30:19;7.60;;;6.28;;
15677;SDS011;7939;50.814;6.368;2023-02-22T12:32:50;10.00;;;7.13;;
15677;SDS011;7939;50.814;6.368;2023-02-22T12:35:20;8.07;;;5.93;;
15677;SDS011;7939;50.814;6.368;2023-02-22T12:37:51;9.82;;;7.68;;
15677;SDS011;7939;50.814;6.368;2023-02-22T12:40:30;9.55;;;6.43;;
15677;SDS011;7939;50.814;6.368;2023-02-22T12:43:01;12.90;;;7.30;;
15677;SDS011;7939;50.814;6.368;2023-02-22T12:45:35;8.20;;;6.68;;
15677;SDS011;7939;50.814;6.368;2023-02-22T12:48:15;14.32;;;7.57;;
15677;SDS011;7939;50.814;6.368;2023-02-22T12:50:51;10.98;;;7.35;;
15677;SDS011;7939;50.814;6.368;2023-02-22T12:53:22;11.95;;;7.07;;
15677;SDS011;7939;50.814;6.368;2023-02-22T12:55:56;12.45;;;7.70;;
15677;SDS011;7939;50.814;6.368;2023-02-22T12:58:31;9.25;;;7.35;;
15677;SDS011;7939;50.814;6.368;2023-02-22T13:01:05;11.13;;;7.88;;
15677;SDS011;7939;50.814;6.368;2023-02-22T13:03:42;10.32;;;7.82;;
15677;SDS011;7939;50.814;6.368;2023-02-22T13:06:19;11.73;;;7.88;;
15677;SDS011;7939;50.814;6.368;2023-02-22T13:08:58;15.02;;;8.43;;
15677;SDS011;7939;50.814;6.368;2023-02-22T13:11:34;10.25;;;7.78;;
15677;SDS011;7939;50.814;6.368;2023-02-22T13:14:13;16.83;;;8.68;;
15677;SDS011;7939;50.814;6.368;2023-02-22T13:16:52;10.90;;;7.93;;
15677;SDS011;7939;50.814;6.368;2023-02-22T13:19:29;12.32;;;8.25;;
15677;SDS011;7939;50.814;6.368;2023-02-22T13:22:04;10.07;;;7.47;;
15677;SDS011;7939;50.814;6.368;2023-02-22T13:24:36;13.07;;;7.95;;
15677;SDS011;7939;50.814;6.368;2023-02-22T13:27:13;9.88;;;7.95;;
15677;SDS011;7939;50.814;6.368;2023-02-22T13:29:47;10.80;;;7.88;;
15677;SDS011;7939;50.814;6.368;2023-02-22T13:32:21;9.70;;;7.00;;
15677;SDS011;7939;50.814;6.368;2023-02-22T13:35:00;10.05;;;8.00;;
15677;SDS011;7939;50.814;6.368;2023-02-22T13:43:50;9.98;;;7.20;;
15677;SDS011;7939;50.814;6.368;2023-02-22T13:46:53;11.85;;;7.43;;
15677;SDS011;7939;50.814;6.368;2023-02-22T13:49:45;10.93;;;7.20;;
15677;SDS011;7939;50.814;6.368;2023-02-22T13:52:20;9.98;;;7.45;;
15677;SDS011;7939;50.814;6.368;2023-02-22T13:54:52;10.65;;;7.68;;
15677;SDS011;7939;50.814;6.368;2023-02-22T13:57:23;10.05;;;7.13;;
15677;SDS011;7939;50.814;6.368;2023-02-22T14:03:04;12.07;;;7.93;;
15677;SDS011;7939;50.814;6.368;2023-02-22T14:05:53;11.18;;;7.25;;
15677;SDS011;7939;50.814;6.368;2023-02-22T14:08:38;9.38;;;7.25;;
15677;SDS011;7939;50.814;6.368;2023-02-22T14:14:14;10.93;;;7.20;;
15677;SDS011;7939;50.814;6.368;2023-02-22T14:16:42;9.70;;;6.78;;
15677;SDS011;7939;50.814;6.368;2023-02-22T14:19:12;9.82;;;7.00;;
15677;SDS011;7939;50.814;6.368;2023-02-22T14:21:56;8.80;;;6.75;;
15677;SDS011;7939;50.814;6.368;2023-02-22T14:24:26;8.13;;;6.30;;
15677;SDS011;7939;50.814;6.368;2023-02-22T14:26:55;9.60;;;6.50;;
15677;SDS011;7939;50.814;6.368;2023-02-22T14:29:25;9.60;;;6.82;;
15677;SDS011;7939;50.814;6.368;2023-02-22T14:31:55;9.10;;;7.15;;
15677;SDS011;7939;50.814;6.368;2023-02-22T14:34:37;10.20;;;6.72;;
15677;SDS011;7939;50.814;6.368;2023-02-22T14:37:19;9.77;;;6.53;;
15677;SDS011;7939;50.814;6.368;2023-02-22T14:39:50;11.02;;;7.78;;
15677;SDS011;7939;50.814;6.368;2023-02-22T14:42:20;9.80;;;7.15;;
15677;SDS011;7939;50.814;6.368;2023-02-22T14:44:51;10.05;;;7.28;;
15677;SDS011;7939;50.814;6.368;2023-02-22T14:47:24;9.77;;;7.05;;
15677;SDS011;7939;50.814;6.368;2023-02-22T14:49:56;12.07;;;8.05;;
15677;SDS011;7939;50.814;6.368;2023-02-22T14:52:30;11.18;;;8.18;;
15677;SDS011;7939;50.814;6.368;2023-02-22T14:55:13;11.68;;;7.47;;
15677;SDS011;7939;50.814;6.368;2023-02-22T14:57:52;11.00;;;7.55;;
15677;SDS011;7939;50.814;6.368;2023-02-22T15:00:26;10.60;;;7.70;;
15677;SDS011;7939;50.814;6.368;2023-02-22T15:03:02;12.25;;;8.32;;
15677;SDS011;7939;50.814;6.368;2023-02-22T15:05:34;11.93;;;8.07;;
15677;SDS011;7939;50.814;6.368;2023-02-22T15:08:06;10.02;;;7.90;;
15677;SDS011;7939;50.814;6.368;2023-02-22T15:10:38;12.95;;;7.70;;
15677;SDS011;7939;50.814;6.368;2023-02-22T15:13:12;11.38;;;7.75;;
15677;SDS011;7939;50.814;6.368;2023-02-22T15:15:43;11.05;;;8.30;;
15677;SDS011;7939;50.814;6.368;2023-02-22T15:18:13;10.77;;;8.20;;
15677;SDS011;7939;50.814;6.368;2023-02-22T15:20:44;11.90;;;8.13;;
15677;SDS011;7939;50.814;6.368;2023-02-22T15:23:14;12.77;;;8.32;;
15677;SDS011;7939;50.814;6.368;2023-02-22T15:25:45;9.80;;;7.78;;
15677;SDS011;7939;50.814;6.368;2023-02-22T15:28:13;9.57;;;8.05;;
15677;SDS011;7939;50.814;6.368;2023-02-22T15:30:40;13.80;;;8.45;;
15677;SDS011;7939;50.814;6.368;2023-02-22T15:33:14;11.60;;;8.43;;
15677;SDS011;7939;50.814;6.368;2023-02-22T15:35:51;12.23;;;8.48;;